メインページ
METAR-TAF:

METAR-TAF

空港 :

トロント, オンタリオ州, カナダ

トロント・ピアソン国際空港

緯度: 43-40N, 経度: 079-38W, 海抜: 173m

現時点の気象観測

当レポートは20分前の23:00(UTC)に作成
南東の風 6kt
気温 17°C
湿度 72%
気圧 1013 hPa
視程: 24.1km
高度5000ftの雲はほとんどない
高度7100ftの千切れ雲あり

METAR: CYYZ 272300Z 14006KT 15SM FEW050 BKN071 17/12 A2991 RMK CU1AC7 CU TR SLP129 DENSITY ALT 900FT

時間: 19:20 (23:20 UTC)

予報

当レポートは2時間41分前の20:39(UTC)に作成
予報は27日の 21時(UTC)から 28日の 24時(UTC)まで有効
南/南東の風 7kt
視程: 10km
高度7000ftの千切れ雲あり
28日の 0200時(UTC)から
東/南東の風 5kt
視程: 10km
高度2000ftの雲はほとんどない
28日の 0500時(UTC)から
東/南東の風 5kt
視程: 8.0km
高度1000ftの千切れ雲あり
28日の 06時(UTC)から 28日の 08時(UTC)まで徐々に
視程: 0.4km
高度100ftの
28日の 1200時(UTC)から
東/南東の風 7kt
視程: 3.2km
高度200ftの千切れ雲あり
28日の 1500時(UTC)から
東/南東の風 8kt
視程: 10km
高度1000ftの雲はほとんどない
28日の 17時(UTC)から 28日の 19時(UTC)まで徐々に
の風 12kt
28日の 2300時(UTC)から
の風 15kt
視程: 10km
高度6000ftの千切れ雲あり
高度24000ftの千切れ雲あり

TAF: CYYZ 272039Z 2721/2824 15007KT P6SM BKN070 FM280200 11005KT P6SM FEW020 FM280500 11005KT 5SM BR BKN010 BECMG 2806/2808 1/4SM FG VV001 FM281200 11007KT 2SM BR BKN002 FM281500 12008KT P6SM FEW010 BECMG 2817/2819 08012KT FM282300 08015KT P6SM BKN060 BKN240 RMK NXT FCST BY 280000Z

4,000以上の空港の気象観測と天気予報(METAR報とTAF報)

利用可能な観測所は地図上に黄色い丸と赤い丸で示す。

丸の上にカーソルを重ねると観測所名を参照できる。

次にクリックすると気象観測と天気予報を参照できる。

マップの切り替え:黒色「×」印の緑ボタンをクリックして拡大、「-」印の緑ボタンをクリックして縮小、緑色の三角印をクリックして隣りの地図に切り替え


METAR-TAF: